BEL26D GUCY-GOBD
Flight info
| Callsign | BEL26D |
|---|---|
| Flight time | 0h 59m |
| Altitude | 38000 |
| Route | AXIRO2N AXIRO UB600 POTOX DCT BIDAV BIDAV1G |
| Aircraft | A333/H-SDE3GHIJ2J3J5M1RVWXY/LB2D1 |
Departure
| Time | 2026-05-05 22:27 |
|---|---|
| Airport | Ahmed Sékou Touré International Airport (GUCY) |
Arrival
| Time | 2026-05-05 23:27 |
|---|---|
| Airport | Blaise Diagne International Airport (GOBD) |
| Time | Latitude | Longitude | Altitude | Speed | Heading |
|---|---|---|---|---|---|
| 2026-05-05 22:05 | 9.57424 | -13.61966 | 84 ft | 0 kts | 318° |
| 2026-05-05 22:18 | 9.57424 | -13.61965 | 56 ft | 0 kts | 318° |
| 2026-05-05 22:18 | 9.57421 | -13.61962 | 56 ft | 3 kts | 318° |
| 2026-05-05 22:19 | 9.57406 | -13.61949 | 89 ft | 3 kts | 318° |
| 2026-05-05 22:19 | 9.57392 | -13.61937 | 87 ft | 3 kts | 318° |
| 2026-05-05 22:19 | 9.57379 | -13.61924 | 89 ft | 3 kts | 318° |
| 2026-05-05 22:19 | 9.57365 | -13.61912 | 89 ft | 3 kts | 318° |
| 2026-05-05 22:20 | 9.57354 | -13.61896 | 89 ft | 3 kts | 272° |
| 2026-05-05 22:20 | 9.57357 | -13.61877 | 87 ft | 3 kts | 242° |
| 2026-05-05 22:20 | 9.57363 | -13.61866 | 87 ft | 0 kts | 224° |
| 2026-05-05 22:21 | 9.57356 | -13.61873 | 88 ft | 3 kts | 225° |
| 2026-05-05 22:22 | 9.57338 | -13.61893 | 88 ft | 5 kts | 226° |
| 2026-05-05 22:22 | 9.57309 | -13.61926 | 89 ft | 7 kts | 229° |
| 2026-05-05 22:22 | 9.57270 | -13.61971 | 90 ft | 10 kts | 226° |
| 2026-05-05 22:22 | 9.57212 | -13.61990 | 88 ft | 8 kts | 163° |
| 2026-05-05 22:23 | 9.57183 | -13.61968 | 89 ft | 0 kts | 139° |
| 2026-05-05 22:23 | 9.57179 | -13.61963 | 85 ft | 2 kts | 139° |
| 2026-05-05 22:23 | 9.57158 | -13.61946 | 88 ft | 5 kts | 140° |
| 2026-05-05 22:23 | 9.57148 | -13.61938 | 87 ft | 0 kts | 142° |
| 2026-05-05 22:24 | 9.57125 | -13.61923 | 90 ft | 9 kts | 153° |
| 2026-05-05 22:24 | 9.57057 | -13.61941 | 87 ft | 12 kts | 224° |
| 2026-05-05 22:24 | 9.56994 | -13.62012 | 88 ft | 15 kts | 229° |
| 2026-05-05 22:24 | 9.56924 | -13.62094 | 89 ft | 16 kts | 229° |
| 2026-05-05 22:25 | 9.56848 | -13.62184 | 90 ft | 18 kts | 229° |
| 2026-05-05 22:25 | 9.56769 | -13.62248 | 89 ft | 11 kts | 199° |
| 2026-05-05 22:25 | 9.56708 | -13.62288 | 89 ft | 8 kts | 251° |
| 2026-05-05 22:25 | 9.56727 | -13.62311 | 91 ft | 3 kts | 346° |
| 2026-05-05 22:26 | 9.56748 | -13.62300 | 90 ft | 3 kts | 42° |
| 2026-05-05 22:26 | 9.56753 | -13.62294 | 91 ft | 6 kts | 50° |
| 2026-05-05 22:26 | 9.56946 | -13.62069 | 86 ft | 82 kts | 49° |
| 2026-05-05 22:26 | 9.57481 | -13.61439 | 86 ft | 153 kts | 49° |
| 2026-05-05 22:27 | 9.58261 | -13.60487 | 503 ft | 187 kts | 49° |
| 2026-05-05 22:27 | 9.59071 | -13.59439 | 1495 ft | 190 kts | 50° |
| 2026-05-05 22:27 | 9.59911 | -13.58387 | 2402 ft | 195 kts | 46° |
| 2026-05-05 22:27 | 9.61143 | -13.57724 | 2783 ft | 216 kts | 6° |
| 2026-05-05 22:28 | 9.62672 | -13.58070 | 3004 ft | 244 kts | 326° |
| 2026-05-05 22:28 | 9.63744 | -13.59433 | 3494 ft | 258 kts | 289° |
| 2026-05-05 22:28 | 9.63861 | -13.61252 | 4188 ft | 265 kts | 263° |
| 2026-05-05 22:28 | 9.63567 | -13.63126 | 4893 ft | 272 kts | 263° |
| 2026-05-05 22:29 | 9.63331 | -13.65047 | 5594 ft | 278 kts | 266° |
| 2026-05-05 22:29 | 9.63292 | -13.67025 | 6289 ft | 284 kts | 273° |
| 2026-05-05 22:29 | 9.63491 | -13.69036 | 6969 ft | 290 kts | 280° |
| 2026-05-05 22:29 | 9.63921 | -13.71061 | 7656 ft | 296 kts | 286° |
| 2026-05-05 22:30 | 9.64568 | -13.73063 | 8375 ft | 302 kts | 292° |
| 2026-05-05 22:30 | 9.65429 | -13.75027 | 9108 ft | 307 kts | 298° |
| 2026-05-05 22:30 | 9.66484 | -13.76908 | 9852 ft | 313 kts | 305° |
| 2026-05-05 22:30 | 9.67759 | -13.78739 | 10374 ft | 326 kts | 311° |
| 2026-05-05 22:31 | 9.69297 | -13.80518 | 10689 ft | 344 kts | 317° |
| 2026-05-05 22:31 | 9.71077 | -13.82169 | 11176 ft | 353 kts | 324° |
| 2026-05-05 22:31 | 9.73078 | -13.83653 | 11840 ft | 356 kts | 330° |
| 2026-05-05 22:31 | 9.75215 | -13.84915 | 12541 ft | 358 kts | 335° |
| 2026-05-05 22:32 | 9.77438 | -13.86098 | 13232 ft | 362 kts | 336° |
| 2026-05-05 22:32 | 9.79697 | -13.87283 | 13874 ft | 368 kts | 335° |
| 2026-05-05 22:32 | 9.81976 | -13.88480 | 14501 ft | 370 kts | 335° |
| 2026-05-05 22:32 | 9.84266 | -13.89688 | 15166 ft | 373 kts | 335° |
| 2026-05-05 22:33 | 9.86574 | -13.90907 | 15799 ft | 375 kts | 335° |
| 2026-05-05 22:33 | 9.88900 | -13.92138 | 16435 ft | 378 kts | 334° |
| 2026-05-05 22:33 | 9.91242 | -13.93377 | 17071 ft | 381 kts | 334° |
| 2026-05-05 22:33 | 9.93595 | -13.94624 | 17746 ft | 383 kts | 334° |
| 2026-05-05 22:34 | 9.95962 | -13.95878 | 18341 ft | 386 kts | 334° |
| 2026-05-05 22:34 | 9.98354 | -13.97146 | 18841 ft | 389 kts | 334° |
| 2026-05-05 22:34 | 10.00763 | -13.98423 | 19346 ft | 392 kts | 333° |
| 2026-05-05 22:34 | 10.03191 | -13.99710 | 19852 ft | 395 kts | 333° |
| 2026-05-05 22:35 | 10.05602 | -14.00988 | 20348 ft | 398 kts | 333° |
| 2026-05-05 22:35 | 10.08063 | -14.02295 | 20832 ft | 401 kts | 333° |
| 2026-05-05 22:35 | 10.10459 | -14.03757 | 21337 ft | 404 kts | 326° |
| 2026-05-05 22:35 | 10.12742 | -14.05445 | 21816 ft | 407 kts | 323° |
| 2026-05-05 22:36 | 10.14968 | -14.07249 | 22292 ft | 411 kts | 321° |
| 2026-05-05 22:36 | 10.17169 | -14.09111 | 22762 ft | 413 kts | 320° |
| 2026-05-05 22:36 | 10.19374 | -14.11000 | 23253 ft | 416 kts | 320° |
| 2026-05-05 22:36 | 10.21596 | -14.12899 | 23664 ft | 420 kts | 320° |
| 2026-05-05 22:37 | 10.23843 | -14.14804 | 24060 ft | 422 kts | 320° |
| 2026-05-05 22:37 | 10.26107 | -14.16709 | 24433 ft | 425 kts | 320° |
| 2026-05-05 22:37 | 10.28400 | -14.18626 | 24780 ft | 428 kts | 320° |
| 2026-05-05 22:37 | 10.30701 | -14.20543 | 25253 ft | 428 kts | 320° |
| 2026-05-05 22:38 | 10.33003 | -14.22459 | 25720 ft | 428 kts | 320° |
| 2026-05-05 22:38 | 10.35302 | -14.24370 | 26213 ft | 427 kts | 320° |
| 2026-05-05 22:38 | 10.37603 | -14.26286 | 26625 ft | 429 kts | 320° |
| 2026-05-05 22:38 | 10.39914 | -14.28210 | 27032 ft | 431 kts | 320° |
| 2026-05-05 22:39 | 10.42238 | -14.30147 | 27425 ft | 433 kts | 320° |
| 2026-05-05 22:39 | 10.44572 | -14.32093 | 27841 ft | 435 kts | 320° |
| 2026-05-05 22:39 | 10.46914 | -14.34047 | 28219 ft | 438 kts | 320° |
| 2026-05-05 22:39 | 10.49262 | -14.36006 | 28594 ft | 440 kts | 320° |
| 2026-05-05 22:40 | 10.51644 | -14.37993 | 28977 ft | 442 kts | 320° |
| 2026-05-05 22:40 | 10.54031 | -14.39985 | 29354 ft | 445 kts | 320° |
| 2026-05-05 22:40 | 10.56410 | -14.41970 | 29744 ft | 447 kts | 320° |
| 2026-05-05 22:40 | 10.58829 | -14.43989 | 30108 ft | 449 kts | 320° |
| 2026-05-05 22:41 | 10.61249 | -14.46009 | 30379 ft | 452 kts | 320° |
| 2026-05-05 22:41 | 10.63687 | -14.48044 | 30627 ft | 455 kts | 320° |
| 2026-05-05 22:41 | 10.66141 | -14.50094 | 30882 ft | 459 kts | 319° |
| 2026-05-05 22:41 | 10.68615 | -14.52161 | 31139 ft | 462 kts | 319° |
| 2026-05-05 22:42 | 10.71123 | -14.54226 | 31402 ft | 465 kts | 320° |
| 2026-05-05 22:42 | 10.73676 | -14.56262 | 31652 ft | 468 kts | 321° |
| 2026-05-05 22:42 | 10.76265 | -14.58291 | 31897 ft | 472 kts | 320° |
| 2026-05-05 22:42 | 10.78881 | -14.60326 | 32144 ft | 475 kts | 320° |
| 2026-05-05 22:43 | 10.81503 | -14.62366 | 32507 ft | 475 kts | 321° |
| 2026-05-05 22:43 | 10.84106 | -14.64395 | 32869 ft | 475 kts | 321° |
| 2026-05-05 22:43 | 10.86730 | -14.66447 | 33256 ft | 475 kts | 321° |
| 2026-05-05 22:43 | 10.89352 | -14.68502 | 33604 ft | 476 kts | 321° |
| 2026-05-05 22:44 | 10.91974 | -14.70561 | 33934 ft | 477 kts | 320° |
| 2026-05-05 22:44 | 10.94602 | -14.72626 | 34282 ft | 476 kts | 320° |
| 2026-05-05 22:44 | 10.97211 | -14.74677 | 34740 ft | 472 kts | 320° |
| 2026-05-05 22:44 | 10.99764 | -14.76683 | 35245 ft | 467 kts | 320° |
| 2026-05-05 22:45 | 11.02318 | -14.78690 | 35783 ft | 461 kts | 320° |
| 2026-05-05 22:45 | 11.04843 | -14.80675 | 36287 ft | 456 kts | 320° |
| 2026-05-05 22:45 | 11.07343 | -14.82641 | 36788 ft | 452 kts | 320° |
| 2026-05-05 22:45 | 11.09819 | -14.84590 | 37265 ft | 449 kts | 320° |
| 2026-05-05 22:46 | 11.12281 | -14.86529 | 37716 ft | 445 kts | 319° |
| 2026-05-05 22:46 | 11.14729 | -14.88457 | 37933 ft | 446 kts | 319° |
| 2026-05-05 22:46 | 11.17179 | -14.90391 | 37960 ft | 445 kts | 319° |
| 2026-05-05 22:47 | 11.22062 | -14.94275 | 37969 ft | 445 kts | 319° |
| 2026-05-05 22:47 | 11.26935 | -14.98166 | 37957 ft | 445 kts | 319° |
| 2026-05-05 22:48 | 11.31801 | -15.02050 | 37959 ft | 444 kts | 318° |
| 2026-05-05 22:48 | 11.36652 | -15.05921 | 37956 ft | 442 kts | 318° |
| 2026-05-05 22:49 | 11.41492 | -15.09785 | 37955 ft | 442 kts | 318° |
| 2026-05-05 22:49 | 11.46331 | -15.13649 | 37956 ft | 442 kts | 318° |
| 2026-05-05 22:50 | 11.51170 | -15.17515 | 37952 ft | 442 kts | 318° |
| 2026-05-05 22:50 | 11.56007 | -15.21381 | 37952 ft | 442 kts | 318° |
| 2026-05-05 22:51 | 11.60845 | -15.25250 | 37952 ft | 442 kts | 318° |
| 2026-05-05 22:51 | 11.65680 | -15.29118 | 37953 ft | 441 kts | 318° |
| 2026-05-05 22:52 | 11.70509 | -15.32983 | 37955 ft | 441 kts | 318° |
| 2026-05-05 22:52 | 11.75333 | -15.36845 | 37951 ft | 441 kts | 318° |
| 2026-05-05 22:53 | 11.80157 | -15.40710 | 37948 ft | 441 kts | 318° |
| 2026-05-05 22:53 | 11.84163 | -15.43921 | 37946 ft | 441 kts | 318° |
| 2026-05-05 22:54 | 11.88984 | -15.47786 | 37945 ft | 441 kts | 318° |
| 2026-05-05 22:54 | 11.93807 | -15.51655 | 37943 ft | 441 kts | 318° |
| 2026-05-05 22:55 | 11.98625 | -15.55521 | 37956 ft | 441 kts | 317° |
| 2026-05-05 22:55 | 12.03443 | -15.59389 | 37955 ft | 440 kts | 317° |
| 2026-05-05 22:56 | 12.08254 | -15.63254 | 37958 ft | 440 kts | 317° |
| 2026-05-05 22:56 | 12.13068 | -15.67123 | 37964 ft | 441 kts | 317° |
| 2026-05-05 22:57 | 12.17888 | -15.70998 | 37957 ft | 441 kts | 317° |
| 2026-05-05 22:57 | 12.22710 | -15.74876 | 37956 ft | 441 kts | 317° |
| 2026-05-05 22:58 | 12.27534 | -15.78758 | 37961 ft | 441 kts | 317° |
| 2026-05-05 22:58 | 12.32354 | -15.82638 | 37963 ft | 441 kts | 317° |
| 2026-05-05 22:59 | 12.37167 | -15.86515 | 37964 ft | 440 kts | 317° |
| 2026-05-05 22:59 | 12.41979 | -15.90393 | 37961 ft | 440 kts | 317° |
| 2026-05-05 23:00 | 12.49161 | -15.96240 | 37966 ft | 440 kts | 317° |
| 2026-05-05 23:00 | 12.53945 | -16.00148 | 37970 ft | 440 kts | 317° |
| 2026-05-05 23:01 | 12.58693 | -16.04025 | 37963 ft | 436 kts | 317° |
| 2026-05-05 23:01 | 12.63447 | -16.07910 | 37884 ft | 435 kts | 317° |
| 2026-05-05 23:02 | 12.65802 | -16.09835 | 37623 ft | 433 kts | 317° |
| 2026-05-05 23:02 | 12.68160 | -16.11763 | 37363 ft | 434 kts | 317° |
| 2026-05-05 23:02 | 12.70522 | -16.13697 | 37112 ft | 436 kts | 317° |
| 2026-05-05 23:02 | 12.72901 | -16.15644 | 36854 ft | 438 kts | 317° |
| 2026-05-05 23:03 | 12.75288 | -16.17598 | 36593 ft | 440 kts | 317° |
| 2026-05-05 23:03 | 12.77687 | -16.19561 | 36356 ft | 442 kts | 317° |
| 2026-05-05 23:03 | 12.80093 | -16.21531 | 36130 ft | 444 kts | 317° |
| 2026-05-05 23:03 | 12.82512 | -16.23512 | 35882 ft | 446 kts | 317° |
| 2026-05-05 23:04 | 12.84944 | -16.25504 | 35637 ft | 448 kts | 317° |
| 2026-05-05 23:04 | 12.87382 | -16.27501 | 35410 ft | 450 kts | 317° |
| 2026-05-05 23:04 | 12.89832 | -16.29509 | 35167 ft | 452 kts | 317° |
| 2026-05-05 23:04 | 12.92291 | -16.31525 | 34935 ft | 454 kts | 317° |
| 2026-05-05 23:05 | 12.94764 | -16.33553 | 34701 ft | 456 kts | 317° |
| 2026-05-05 23:05 | 12.97244 | -16.35586 | 34486 ft | 457 kts | 316° |
| 2026-05-05 23:05 | 12.99725 | -16.37621 | 34260 ft | 456 kts | 316° |
| 2026-05-05 23:05 | 13.02164 | -16.39621 | 34035 ft | 455 kts | 316° |
| 2026-05-05 23:06 | 13.04670 | -16.41678 | 33780 ft | 456 kts | 316° |
| 2026-05-05 23:06 | 13.07113 | -16.43684 | 33328 ft | 455 kts | 316° |
| 2026-05-05 23:06 | 13.09585 | -16.45714 | 32568 ft | 457 kts | 317° |
| 2026-05-05 23:06 | 13.12073 | -16.47759 | 31790 ft | 460 kts | 317° |
| 2026-05-05 23:07 | 13.14576 | -16.49816 | 31048 ft | 462 kts | 317° |
| 2026-05-05 23:07 | 13.17074 | -16.51868 | 30503 ft | 458 kts | 317° |
| 2026-05-05 23:07 | 13.19558 | -16.53909 | 29902 ft | 456 kts | 317° |
| 2026-05-05 23:07 | 13.22027 | -16.55938 | 29235 ft | 454 kts | 317° |
| 2026-05-05 23:08 | 13.24481 | -16.57956 | 28628 ft | 450 kts | 317° |
| 2026-05-05 23:08 | 13.26914 | -16.59957 | 28032 ft | 446 kts | 317° |
| 2026-05-05 23:08 | 13.29326 | -16.61942 | 27452 ft | 443 kts | 318° |
| 2026-05-05 23:08 | 13.31721 | -16.63913 | 26850 ft | 440 kts | 318° |
| 2026-05-05 23:09 | 13.34247 | -16.65697 | 26208 ft | 443 kts | 329° |
| 2026-05-05 23:09 | 13.37115 | -16.66891 | 25578 ft | 446 kts | 338° |
| 2026-05-05 23:09 | 13.40074 | -16.67850 | 24957 ft | 445 kts | 340° |
| 2026-05-05 23:09 | 13.43031 | -16.68768 | 24340 ft | 444 kts | 340° |
| 2026-05-05 23:10 | 13.45960 | -16.69679 | 23736 ft | 442 kts | 341° |
| 2026-05-05 23:10 | 13.48915 | -16.70605 | 23053 ft | 440 kts | 341° |
| 2026-05-05 23:10 | 13.51828 | -16.71522 | 22413 ft | 436 kts | 341° |
| 2026-05-05 23:10 | 13.54713 | -16.72433 | 21804 ft | 431 kts | 341° |
| 2026-05-05 23:11 | 13.57567 | -16.73336 | 21199 ft | 427 kts | 341° |
| 2026-05-05 23:11 | 13.60388 | -16.74229 | 20606 ft | 423 kts | 341° |
| 2026-05-05 23:11 | 13.63192 | -16.75119 | 20019 ft | 420 kts | 342° |
| 2026-05-05 23:11 | 13.65972 | -16.76001 | 19411 ft | 416 kts | 342° |
| 2026-05-05 23:12 | 13.68729 | -16.76876 | 18819 ft | 413 kts | 342° |
| 2026-05-05 23:12 | 13.71465 | -16.77744 | 18228 ft | 410 kts | 342° |
| 2026-05-05 23:12 | 13.74183 | -16.78608 | 17557 ft | 407 kts | 342° |
| 2026-05-05 23:12 | 13.76879 | -16.79464 | 16964 ft | 403 kts | 342° |
| 2026-05-05 23:13 | 13.79540 | -16.80310 | 16375 ft | 398 kts | 343° |
| 2026-05-05 23:13 | 13.82174 | -16.81147 | 15773 ft | 394 kts | 343° |
| 2026-05-05 23:13 | 13.84785 | -16.81977 | 15173 ft | 391 kts | 343° |
| 2026-05-05 23:13 | 13.87373 | -16.82800 | 14599 ft | 388 kts | 343° |
| 2026-05-05 23:14 | 13.89941 | -16.83617 | 14015 ft | 385 kts | 343° |
| 2026-05-05 23:14 | 13.92460 | -16.84418 | 13401 ft | 382 kts | 343° |
| 2026-05-05 23:14 | 13.95014 | -16.85230 | 12802 ft | 378 kts | 343° |
| 2026-05-05 23:14 | 13.97508 | -16.86024 | 12242 ft | 373 kts | 344° |
| 2026-05-05 23:15 | 13.99975 | -16.86810 | 11673 ft | 369 kts | 344° |
| 2026-05-05 23:15 | 14.02413 | -16.87586 | 11093 ft | 365 kts | 344° |
| 2026-05-05 23:15 | 14.04836 | -16.88357 | 10511 ft | 363 kts | 344° |
| 2026-05-05 23:15 | 14.07226 | -16.89119 | 10198 ft | 352 kts | 344° |
| 2026-05-05 23:16 | 14.09505 | -16.89847 | 10126 ft | 334 kts | 344° |
| 2026-05-05 23:16 | 14.11676 | -16.90540 | 10021 ft | 320 kts | 344° |
| 2026-05-05 23:16 | 14.13773 | -16.91208 | 9724 ft | 313 kts | 345° |
| 2026-05-05 23:16 | 14.15820 | -16.91860 | 9344 ft | 310 kts | 345° |
| 2026-05-05 23:17 | 14.17865 | -16.92511 | 8817 ft | 304 kts | 344° |
| 2026-05-05 23:17 | 14.19859 | -16.93147 | 8278 ft | 296 kts | 344° |
| 2026-05-05 23:17 | 14.21822 | -16.93774 | 7845 ft | 289 kts | 345° |
| 2026-05-05 23:17 | 14.23703 | -16.94439 | 7436 ft | 290 kts | 337° |
| 2026-05-05 23:18 | 14.25411 | -16.95558 | 6958 ft | 293 kts | 328° |
| 2026-05-05 23:18 | 14.26708 | -16.96378 | 6740 ft | 288 kts | 331° |
| 2026-05-05 23:18 | 14.28432 | -16.97400 | 6380 ft | 284 kts | 332° |
| 2026-05-05 23:18 | 14.30144 | -16.98408 | 6080 ft | 279 kts | 331° |
| 2026-05-05 23:19 | 14.31803 | -16.99397 | 6016 ft | 274 kts | 330° |
| 2026-05-05 23:19 | 14.33450 | -17.00389 | 6018 ft | 274 kts | 330° |
| 2026-05-05 23:19 | 14.35099 | -17.01385 | 6002 ft | 275 kts | 330° |
| 2026-05-05 23:19 | 14.36746 | -17.02375 | 5828 ft | 274 kts | 330° |
| 2026-05-05 23:20 | 14.38394 | -17.03364 | 5529 ft | 273 kts | 330° |
| 2026-05-05 23:20 | 14.40028 | -17.04350 | 5152 ft | 271 kts | 329° |
| 2026-05-05 23:20 | 14.41650 | -17.05330 | 4766 ft | 266 kts | 329° |
| 2026-05-05 23:20 | 14.43193 | -17.06267 | 4429 ft | 248 kts | 331° |
| 2026-05-05 23:21 | 14.44720 | -17.06900 | 4153 ft | 227 kts | 345° |
| 2026-05-05 23:21 | 14.46228 | -17.07094 | 3864 ft | 211 kts | 356° |
| 2026-05-05 23:21 | 14.47644 | -17.07094 | 3621 ft | 196 kts | 358° |
| 2026-05-05 23:21 | 14.48963 | -17.07103 | 3390 ft | 183 kts | 356° |
| 2026-05-05 23:22 | 14.50201 | -17.07122 | 3154 ft | 173 kts | 356° |
| 2026-05-05 23:22 | 14.51375 | -17.07134 | 2944 ft | 166 kts | 356° |
| 2026-05-05 23:22 | 14.52507 | -17.07144 | 2742 ft | 158 kts | 356° |
| 2026-05-05 23:22 | 14.53566 | -17.07154 | 2539 ft | 146 kts | 356° |
| 2026-05-05 23:23 | 14.54536 | -17.07163 | 2367 ft | 134 kts | 356° |
| 2026-05-05 23:23 | 14.55457 | -17.07173 | 2199 ft | 132 kts | 357° |
| 2026-05-05 23:23 | 14.56379 | -17.07181 | 2028 ft | 133 kts | 356° |
| 2026-05-05 23:23 | 14.57309 | -17.07188 | 1835 ft | 134 kts | 356° |
| 2026-05-05 23:24 | 14.58237 | -17.07196 | 1657 ft | 133 kts | 357° |
| 2026-05-05 23:24 | 14.59157 | -17.07196 | 1493 ft | 132 kts | 357° |
| 2026-05-05 23:24 | 14.60072 | -17.07202 | 1335 ft | 131 kts | 356° |
| 2026-05-05 23:24 | 14.60985 | -17.07221 | 1143 ft | 131 kts | 356° |
| 2026-05-05 23:25 | 14.61892 | -17.07221 | 1011 ft | 130 kts | 355° |
| 2026-05-05 23:25 | 14.62787 | -17.07228 | 815 ft | 129 kts | 354° |
| 2026-05-05 23:25 | 14.63681 | -17.07251 | 679 ft | 130 kts | 357° |
| 2026-05-05 23:25 | 14.64583 | -17.07254 | 510 ft | 128 kts | 358° |
| 2026-05-05 23:26 | 14.65474 | -17.07264 | 366 ft | 129 kts | 356° |
| 2026-05-05 23:26 | 14.66329 | -17.07277 | 306 ft | 106 kts | 359° |
| 2026-05-05 23:26 | 14.66875 | -17.07281 | 304 ft | 59 kts | 359° |
| 2026-05-05 23:26 | 14.67260 | -17.07284 | 297 ft | 52 kts | 360° |
| 2026-05-05 23:27 | 14.67556 | -17.07287 | 298 ft | 34 kts | 1° |
| 2026-05-05 23:27 | 14.67732 | -17.07230 | 297 ft | 20 kts | 28° |
| 2026-05-05 23:27 | 14.67806 | -17.07185 | 294 ft | 0 kts | 31° |
| 2026-05-05 23:28 | 14.67811 | -17.07181 | 295 ft | 2 kts | 31° |
| 2026-05-05 23:28 | 14.67832 | -17.07156 | 293 ft | 8 kts | 65° |
| 2026-05-05 23:28 | 14.67794 | -17.07107 | 293 ft | 13 kts | 168° |
| 2026-05-05 23:28 | 14.67693 | -17.07100 | 293 ft | 14 kts | 178° |
| 2026-05-05 23:29 | 14.67604 | -17.07098 | 297 ft | 12 kts | 178° |
| 2026-05-05 23:29 | 14.67532 | -17.07095 | 294 ft | 10 kts | 178° |
| 2026-05-05 23:29 | 14.67468 | -17.07095 | 298 ft | 10 kts | 180° |
| 2026-05-05 23:29 | 14.67384 | -17.07095 | 299 ft | 14 kts | 180° |
| 2026-05-05 23:30 | 14.67281 | -17.07094 | 298 ft | 15 kts | 180° |
| 2026-05-05 23:30 | 14.67211 | -17.07095 | 302 ft | 14 kts | 180° |
| 2026-05-05 23:30 | 14.67101 | -17.07087 | 298 ft | 9 kts | 149° |
| 2026-05-05 23:30 | 14.67079 | -17.07036 | 301 ft | 9 kts | 105° |
| 2026-05-05 23:31 | 14.67050 | -17.06993 | 301 ft | 4 kts | 139° |
| 2026-05-05 23:31 | 14.67034 | -17.06976 | 302 ft | 4 kts | 128° |
| 2026-05-05 23:31 | 14.67023 | -17.06933 | 302 ft | 7 kts | 94° |
| 2026-05-05 23:31 | 14.67023 | -17.06888 | 302 ft | 5 kts | 89° |
| 2026-05-05 23:32 | 14.67023 | -17.06856 | 302 ft | 3 kts | 89° |
| 2026-05-05 23:32 | 14.67023 | -17.06850 | 302 ft | 0 kts | 89° |